createdAt,value
2022-11-26T00:00:19.248Z,99510.94
2022-11-26T00:03:21.977Z,99509.84
2022-11-26T00:06:29.884Z,99507.69
2022-11-26T00:09:33.790Z,99518.00
2022-11-26T00:12:36.406Z,99517.72
2022-11-26T00:15:39.271Z,99519.34
2022-11-26T00:18:42.122Z,99520.44
2022-11-26T00:21:44.822Z,99536.47
2022-11-26T00:24:48.740Z,99540.28
2022-11-26T00:27:52.881Z,99530.47
2022-11-26T00:30:57.812Z,99537.00
2022-11-26T00:34:00.454Z,99534.84
2022-11-26T00:37:03.098Z,99537.28
2022-11-26T00:40:11.683Z,99544.84
2022-11-26T00:43:15.709Z,99548.91
2022-11-26T00:46:20.540Z,99548.38
2022-11-26T00:49:24.101Z,99554.03
2022-11-26T00:52:31.275Z,99558.38
2022-11-26T00:55:36.458Z,99568.66
2022-11-26T00:58:39.061Z,99571.38
2022-11-26T01:01:41.802Z,99570.03
2022-11-26T01:04:44.360Z,99572.97
2022-11-26T01:07:47.679Z,99580.53
2022-11-26T01:10:51.694Z,99587.88
2022-11-26T01:13:55.696Z,99596.03
2022-11-26T01:16:58.837Z,99592.22
2022-11-26T01:20:01.504Z,99605.25
2022-11-26T01:23:04.194Z,99601.94
2022-11-26T01:26:08.495Z,99605.50
2022-11-26T01:29:15.622Z,99613.44
2022-11-26T01:32:18.194Z,99615.03
2022-11-26T01:35:21.761Z,99618.84
2022-11-26T01:38:24.437Z,99624.81
2022-11-26T01:41:40.719Z,99624.84
2022-11-26T01:44:43.337Z,99627.03
2022-11-26T01:47:48.598Z,99634.66
2022-11-26T01:51:00.601Z,99641.16
2022-11-26T01:54:03.481Z,99648.22
2022-11-26T01:57:10.382Z,99638.94
2022-11-26T02:00:14.376Z,99645.75
2022-11-26T02:03:17.699Z,99654.41
2022-11-26T02:06:23.893Z,99651.69
2022-11-26T02:09:27.562Z,99656.56
2022-11-26T02:12:31.432Z,99653.63
2022-11-26T02:15:39.378Z,99650.91
2022-11-26T02:18:43.800Z,99657.72
2022-11-26T02:21:51.512Z,99654.72
2022-11-26T02:25:01.154Z,99652.81
2022-11-26T02:28:25.389Z,99662.88
2022-11-26T02:31:30.613Z,99662.88
2022-11-26T02:34:38.050Z,99671.03
2022-11-26T02:37:44.004Z,99675.38
2022-11-26T02:40:46.636Z,99687.34
2022-11-26T02:43:49.657Z,99686.59
2022-11-26T02:46:56.068Z,99693.91
2022-11-26T02:50:01.544Z,99692.56
2022-11-26T02:53:04.786Z,99703.69
2022-11-26T02:56:10.455Z,99699.34
2022-11-26T02:59:15.066Z,99707.47
2022-11-26T03:02:23.162Z,99718.63
2022-11-26T03:05:26.096Z,99718.34
2022-11-26T03:08:29.063Z,99722.69
2022-11-26T03:11:31.693Z,99722.97
2022-11-26T03:14:34.517Z,99724.31
2022-11-26T03:17:39.009Z,99731.88
2022-11-26T03:20:41.621Z,99732.69
2022-11-26T03:23:44.258Z,99733.78
2022-11-26T03:26:46.805Z,99743.84
2022-11-26T03:29:49.533Z,99743.56
2022-11-26T03:32:53.452Z,99741.16
2022-11-26T03:35:56.194Z,99743.88
2022-11-26T03:38:58.769Z,99744.97
2022-11-26T03:42:01.772Z,99748.25
2022-11-26T03:45:05.323Z,99748.53
2022-11-26T03:48:09.389Z,99749.06
2022-11-26T03:51:12.097Z,99752.06
2022-11-26T03:54:14.759Z,99753.72
2022-11-26T03:57:17.805Z,99752.88
2022-11-26T04:00:21.779Z,99751.78
2022-11-26T04:03:25.944Z,99753.97
2022-11-26T04:06:28.574Z,99752.88
2022-11-26T04:09:31.514Z,99753.69
2022-11-26T04:12:34.182Z,99744.47
2022-11-26T04:15:36.760Z,99754.81
2022-11-26T04:18:40.702Z,99757.50
2022-11-26T04:21:43.375Z,99760.50
2022-11-26T04:24:46.023Z,99757.25
2022-11-26T04:27:48.620Z,99754.53
2022-11-26T04:30:51.456Z,99767.56
2022-11-26T04:33:55.350Z,99761.84
2022-11-26T04:36:57.947Z,99758.59
2022-11-26T04:40:00.611Z,99756.69
2022-11-26T04:43:03.188Z,99756.69
2022-11-26T04:46:05.986Z,99759.66
2022-11-26T04:49:10.158Z,99759.94
2022-11-26T04:52:13.838Z,99768.66
2022-11-26T04:55:16.472Z,99760.75
2022-11-26T04:58:19.521Z,99770.25
2022-11-26T05:01:22.205Z,99775.13
2022-11-26T05:04:26.155Z,99772.63
2022-11-26T05:07:28.836Z,99770.41
2022-11-26T05:10:31.820Z,99779.56
2022-11-26T05:13:34.402Z,99780.84
2022-11-26T05:16:37.226Z,99777.59
2022-11-26T05:19:41.185Z,99782.97
2022-11-26T05:22:43.869Z,99781.84
2022-11-26T05:25:46.432Z,99779.41
2022-11-26T05:28:48.984Z,99777.19
2022-11-26T05:31:51.736Z,99784.13
2022-11-26T05:34:59.859Z,99783.75
2022-11-26T05:38:02.874Z,99786.53
2022-11-26T05:41:05.695Z,99794.00
2022-11-26T05:44:08.313Z,99801.53
2022-11-26T05:47:11.046Z,99801.75
2022-11-26T05:50:15.517Z,99814.19
2022-11-26T05:53:18.186Z,99815.50
2022-11-26T05:56:20.741Z,99820.38
2022-11-26T05:59:23.323Z,99818.97
2022-11-26T06:02:25.989Z,99824.44
2022-11-26T06:05:30.070Z,99820.72
2022-11-26T06:08:32.765Z,99826.06
2022-11-26T06:11:35.381Z,99821.72
2022-11-26T06:14:42.777Z,99825.78
2022-11-26T06:17:45.981Z,99837.84
2022-11-26T06:20:49.918Z,99842.94
2022-11-26T06:23:58.911Z,99847.19
2022-11-26T06:27:02.076Z,99839.88
2022-11-26T06:30:06.932Z,99844.41
2022-11-26T06:33:09.491Z,99838.03
2022-11-26T06:36:13.431Z,99834.00
2022-11-26T06:39:16.165Z,99839.19
2022-11-26T06:42:18.983Z,99841.63
2022-11-26T06:45:22.692Z,99849.94
2022-11-26T06:48:25.835Z,99855.56
2022-11-26T06:51:29.904Z,99863.22
2022-11-26T06:54:32.805Z,99874.19
2022-11-26T06:57:35.552Z,99874.66
2022-11-26T07:00:38.236Z,99874.91
2022-11-26T07:03:41.033Z,99876.75
2022-11-26T07:06:45.760Z,99884.88
2022-11-26T07:09:48.427Z,99889.13
2022-11-26T07:12:51.028Z,99896.69
2022-11-26T07:15:53.857Z,99903.72
2022-11-26T07:19:02.746Z,99907.00
2022-11-26T07:22:07.265Z,99917.03
2022-11-26T07:25:12.774Z,99917.19
2022-11-26T07:28:15.637Z,99932.00
2022-11-26T07:31:20.028Z,99932.59
2022-11-26T07:34:22.695Z,99942.56
2022-11-26T07:37:26.839Z,99950.31
2022-11-26T07:40:29.403Z,99949.06
2022-11-26T07:43:32.028Z,99954.09
2022-11-26T07:46:34.762Z,99958.28
2022-11-26T07:49:37.546Z,99971.13
2022-11-26T07:52:41.620Z,99969.63
2022-11-26T07:55:44.225Z,99965.06
2022-11-26T07:58:47.135Z,99974.38
2022-11-26T08:01:49.861Z,99977.13
2022-11-26T08:04:52.514Z,99988.56
2022-11-26T08:07:56.692Z,99969.53
2022-11-26T08:10:59.424Z,99974.97
2022-11-26T08:14:04.420Z,99976.06
2022-11-26T08:17:06.982Z,99980.41
2022-11-26T08:20:10.440Z,99979.63
2022-11-26T08:23:14.372Z,99990.25
2022-11-26T08:26:32.584Z,99984.31
2022-11-26T08:29:37.549Z,99987.34
2022-11-26T08:32:40.191Z,99990.88
2022-11-26T08:36:05.449Z,99987.59
2022-11-26T08:39:06.884Z,99993.84
2022-11-26T08:42:09.483Z,99997.13
2022-11-26T08:45:12.640Z,100006.34
2022-11-26T08:48:15.378Z,100007.47
2022-11-26T08:51:18.363Z,100000.41
2022-11-26T08:54:22.344Z,100017.00
2022-11-26T08:57:26.481Z,100010.69
2022-11-26T09:00:29.219Z,100009.56
2022-11-26T09:03:32.369Z,100006.56
2022-11-26T09:06:36.795Z,99996.44
2022-11-26T09:09:40.808Z,100012.94
2022-11-26T09:12:43.498Z,100013.19
2022-11-26T09:15:46.217Z,100013.44
2022-11-26T09:18:48.902Z,99999.13
2022-11-26T09:21:51.589Z,99997.78
2022-11-26T09:24:55.673Z,99991.00
2022-11-26T09:27:58.326Z,99991.06
2022-11-26T09:31:01.441Z,99994.03
2022-11-26T09:34:04.351Z,99989.44
2022-11-26T09:37:07.109Z,100000.38
2022-11-26T09:40:18.000Z,100000.66
2022-11-26T09:43:26.922Z,100002.56
2022-11-26T09:46:45.461Z,99998.78
2022-11-26T09:49:56.489Z,100006.38
2022-11-26T09:53:01.820Z,100015.09
2022-11-26T09:56:10.233Z,100014.28
2022-11-26T09:59:14.760Z,100005.81
2022-11-26T10:02:17.637Z,100002.84
2022-11-26T10:05:21.593Z,100004.47
2022-11-26T10:08:50.584Z,100010.44
2022-11-26T10:12:01.930Z,99999.56
2022-11-26T10:15:10.214Z,100001.19
2022-11-26T10:18:18.734Z,99997.84
2022-11-26T10:21:37.742Z,100005.84
2022-11-26T10:24:46.450Z,100005.69
2022-11-26T10:27:51.001Z,100002.34
2022-11-26T10:30:58.744Z,100000.13
2022-11-26T10:34:03.987Z,100002.09
2022-11-26T10:37:07.049Z,99998.31
2022-11-26T10:40:19.955Z,100004.44
2022-11-26T10:43:25.449Z,100000.03
2022-11-26T10:46:33.879Z,100004.59
2022-11-26T10:49:36.654Z,100003.34
2022-11-26T10:52:42.075Z,100004.81
2022-11-26T10:55:45.019Z,100000.75
2022-11-26T10:58:50.344Z,100001.44
2022-11-26T11:01:56.198Z,100002.16
2022-11-26T11:05:02.864Z,99993.59
2022-11-26T11:08:05.721Z,99979.16
2022-11-26T11:11:20.081Z,99982.78
2022-11-26T11:14:29.566Z,99987.91
2022-11-26T11:17:34.953Z,99981.16
2022-11-26T11:20:38.754Z,99977.88
2022-11-26T11:24:07.009Z,99980.81
2022-11-26T11:27:04.373Z,99979.03
2022-11-26T11:30:25.774Z,99983.69
2022-11-26T11:33:30.358Z,99978.28
2022-11-26T11:36:33.248Z,99985.41
2022-11-26T11:39:37.020Z,99973.34
2022-11-26T11:42:40.828Z,99967.88
2022-11-26T11:45:53.264Z,99972.28
2022-11-26T11:49:01.414Z,99964.69
2022-11-26T11:52:15.007Z,99964.16
2022-11-26T11:55:23.857Z,99957.91
2022-11-26T11:58:55.450Z,99964.41
2022-11-26T12:02:16.206Z,99964.66
2022-11-26T12:05:35.305Z,99960.47
2022-11-26T12:08:45.148Z,99963.75
2022-11-26T12:11:54.980Z,99946.81
2022-11-26T12:15:05.056Z,99943.28
2022-11-26T12:18:21.996Z,99946.59
2022-11-26T12:21:31.608Z,99945.84
2022-11-26T12:24:39.484Z,99953.22
2022-11-26T12:27:45.727Z,99950.91
2022-11-26T12:30:52.704Z,99947.09
2022-11-26T12:34:04.182Z,99952.09
2022-11-26T12:37:16.664Z,99952.41
2022-11-26T12:40:29.392Z,99957.16
2022-11-26T12:43:44.757Z,99951.31
2022-11-26T12:46:53.390Z,99941.72
2022-11-26T12:50:07.127Z,99934.41
2022-11-26T12:53:18.121Z,99936.56
2022-11-26T12:56:22.826Z,99943.13
2022-11-26T12:59:28.896Z,99937.28
2022-11-26T13:02:33.946Z,99929.13
2022-11-26T13:05:51.111Z,99934.88
2022-11-26T13:09:01.928Z,99931.16
2022-11-26T13:12:09.114Z,99937.63
2022-11-26T13:15:15.904Z,99928.06
2022-11-26T13:18:22.464Z,99927.66
2022-11-26T13:21:37.524Z,99934.41
2022-11-26T13:24:55.509Z,99932.53
2022-11-26T13:28:05.736Z,99928.81
2022-11-26T13:31:22.304Z,99924.84
2022-11-26T13:34:38.528Z,99920.88
2022-11-26T13:37:55.981Z,99927.03
2022-11-26T13:41:31.580Z,99916.91
2022-11-26T13:45:10.158Z,99913.94
2022-11-26T13:48:16.530Z,99924.00
2022-11-26T13:51:23.501Z,99907.78
2022-11-26T13:54:30.285Z,99915.03
2022-11-26T13:57:39.739Z,99914.09
2022-11-26T14:00:42.510Z,99915.16
2022-11-26T14:03:47.542Z,99917.66
2022-11-26T14:07:21.439Z,99920.13
2022-11-26T14:10:44.444Z,99919.31
2022-11-26T14:14:23.355Z,99922.09
2022-11-26T14:17:32.461Z,99910.44
2022-11-26T14:21:14.222Z,99920.69
2022-11-26T14:24:56.327Z,99919.06
2022-11-26T14:28:01.848Z,99923.69
2022-11-26T14:31:18.478Z,99918.22
2022-11-26T14:34:26.266Z,99920.91
2022-11-26T14:37:31.410Z,99920.81
2022-11-26T14:40:36.781Z,99922.50
2022-11-26T14:43:39.743Z,99922.84
2022-11-26T14:46:44.289Z,99926.47
2022-11-26T14:49:50.649Z,99938.25
2022-11-26T14:52:58.939Z,99937.72
2022-11-26T14:56:02.346Z,99939.09
2022-11-26T14:59:05.668Z,99935.88
2022-11-26T15:02:21.570Z,99937.25
2022-11-26T15:05:25.980Z,99935.38
2022-11-26T15:08:30.271Z,99930.16
2022-11-26T15:11:33.226Z,99939.69
2022-11-26T15:14:41.398Z,99951.91
2022-11-26T15:17:45.830Z,99947.25
2022-11-26T15:20:52.083Z,99940.72
2022-11-26T15:23:58.277Z,99943.38
2022-11-26T15:27:01.046Z,99944.97
2022-11-26T15:30:04.698Z,99943.00
2022-11-26T15:33:13.661Z,99941.31
2022-11-26T15:36:17.907Z,99930.94
2022-11-26T15:39:30.447Z,99934.09
2022-11-26T15:42:33.402Z,99925.31
2022-11-26T15:45:39.930Z,99931.50
2022-11-26T15:48:54.448Z,99929.53
2022-11-26T15:51:59.123Z,99919.91
2022-11-26T15:55:13.709Z,99926.16
2022-11-26T15:58:20.826Z,99930.94
2022-11-26T16:01:26.613Z,99930.13
2022-11-26T16:04:40.184Z,99929.28
2022-11-26T16:07:57.675Z,99927.34
2022-11-26T16:11:08.407Z,99925.72
2022-11-26T16:14:24.879Z,99917.75
2022-11-26T16:17:27.549Z,99919.38
2022-11-26T16:20:30.698Z,99917.63
2022-11-26T16:23:33.446Z,99920.03
2022-11-26T16:26:57.468Z,99918.41
2022-11-26T16:30:00.593Z,99917.44
2022-11-26T16:33:03.360Z,99923.72
2022-11-26T16:36:18.242Z,99916.41
2022-11-26T16:39:20.815Z,99928.75
2022-11-26T16:42:24.828Z,99924.03
2022-11-26T16:45:27.533Z,99927.25
2022-11-26T16:48:30.312Z,99924.50
2022-11-26T16:51:32.960Z,99925.38
2022-11-26T16:54:35.584Z,99925.63
2022-11-26T16:57:39.592Z,99925.31
2022-11-26T17:00:42.343Z,99925.69
2022-11-26T17:03:45.116Z,99921.66
2022-11-26T17:06:48.010Z,99926.03
2022-11-26T17:09:50.857Z,99919.34
2022-11-26T17:12:54.820Z,99920.63
2022-11-26T17:15:57.754Z,99920.50
2022-11-26T17:19:01.478Z,99922.94
2022-11-26T17:22:04.066Z,99923.06
2022-11-26T17:25:08.164Z,99920.88
2022-11-26T17:28:13.587Z,99924.66
2022-11-26T17:31:16.357Z,99928.38
2022-11-26T17:34:19.040Z,99920.59
2022-11-26T17:37:25.377Z,99931.31
2022-11-26T17:40:28.942Z,99944.66
2022-11-26T17:43:32.994Z,99939.78
2022-11-26T17:47:00.897Z,99935.66
2022-11-26T17:49:58.483Z,99944.94
2022-11-26T17:53:01.142Z,99941.44
2022-11-26T17:56:03.708Z,99939.53
2022-11-26T17:59:07.943Z,99937.97
2022-11-26T18:02:11.415Z,99937.28
2022-11-26T18:05:14.440Z,99945.31
2022-11-26T18:08:17.166Z,99935.31
2022-11-26T18:11:19.968Z,99940.41
2022-11-26T18:14:24.702Z,99939.91
2022-11-26T18:17:27.668Z,99947.72
2022-11-26T18:20:30.356Z,99948.75
2022-11-26T18:23:32.993Z,99943.59
2022-11-26T18:26:35.785Z,99935.66
2022-11-26T18:29:39.971Z,99935.66
2022-11-26T18:32:42.922Z,99931.41
2022-11-26T18:35:45.548Z,99938.28
2022-11-26T18:38:48.398Z,99938.06
2022-11-26T18:41:54.523Z,99937.81
2022-11-26T18:45:01.702Z,99937.00
2022-11-26T18:48:04.540Z,99952.63
2022-11-26T18:51:07.404Z,99948.22
2022-11-26T18:54:10.733Z,99945.38
2022-11-26T18:57:13.549Z,99944.78
2022-11-26T19:00:18.513Z,99942.00
2022-11-26T19:03:21.383Z,99941.78
2022-11-26T19:06:25.356Z,99939.06
2022-11-26T19:09:27.919Z,99934.88
2022-11-26T19:12:30.706Z,99925.47
2022-11-26T19:15:34.854Z,99924.97
2022-11-26T19:18:37.865Z,99924.41
2022-11-26T19:21:40.463Z,99922.84
2022-11-26T19:24:43.100Z,99922.69
2022-11-26T19:27:45.757Z,99928.34
2022-11-26T19:30:59.790Z,99913.16
2022-11-26T19:34:05.862Z,99917.28
2022-11-26T19:37:08.441Z,99921.34
2022-11-26T19:40:12.366Z,99916.44
2022-11-26T19:43:14.891Z,99905.47
2022-11-26T19:46:21.508Z,99897.63
2022-11-26T19:49:24.166Z,99899.34
2022-11-26T19:52:26.909Z,99896.53
2022-11-26T19:55:29.779Z,99892.94
2022-11-26T19:58:34.040Z,99894.84
2022-11-26T20:01:38.583Z,99890.75
2022-11-26T20:04:41.427Z,99890.50
2022-11-26T20:07:45.286Z,99890.66
2022-11-26T20:10:50.026Z,99892.28
2022-11-26T20:13:52.921Z,99887.38
2022-11-26T20:17:00.900Z,99888.13
2022-11-26T20:20:04.640Z,99884.44
2022-11-26T20:23:07.420Z,99871.19
2022-11-26T20:26:16.672Z,99880.25
2022-11-26T20:29:20.079Z,99882.47
2022-11-26T20:32:24.072Z,99889.09
2022-11-26T20:35:26.918Z,99886.06
2022-11-26T20:38:29.547Z,99886.41
2022-11-26T20:41:32.644Z,99886.16
2022-11-26T20:44:35.900Z,99887.41
2022-11-26T20:47:39.892Z,99878.06
2022-11-26T20:50:42.537Z,99882.16
2022-11-26T20:53:46.855Z,99889.44
2022-11-26T20:56:49.658Z,99878.31
2022-11-26T20:59:52.241Z,99875.00
2022-11-26T21:02:56.462Z,99876.34
2022-11-26T21:06:03.040Z,99868.84
2022-11-26T21:09:07.280Z,99866.59
2022-11-26T21:12:09.994Z,99871.44
2022-11-26T21:15:13.004Z,99869.31
2022-11-26T21:18:17.146Z,99883.97
2022-11-26T21:21:19.783Z,99885.25
2022-11-26T21:24:22.578Z,99886.13
2022-11-26T21:27:25.368Z,99865.56
2022-11-26T21:30:28.169Z,99867.25
2022-11-26T21:33:32.167Z,99874.84
2022-11-26T21:36:36.783Z,99877.31
2022-11-26T21:39:39.648Z,99878.97
2022-11-26T21:42:42.377Z,99882.28
2022-11-26T21:45:45.110Z,99886.00
2022-11-26T21:48:49.700Z,99889.56
2022-11-26T21:51:52.574Z,99896.25
2022-11-26T21:54:58.395Z,99891.91
2022-11-26T21:58:03.473Z,99899.53
2022-11-26T22:01:13.701Z,99880.38
2022-11-26T22:04:19.510Z,99883.25
2022-11-26T22:07:22.545Z,99892.84
2022-11-26T22:10:25.636Z,99897.13
2022-11-26T22:13:28.288Z,99895.50
2022-11-26T22:16:31.431Z,99904.53
2022-11-26T22:19:35.539Z,99902.34
2022-11-26T22:22:38.148Z,99904.13
2022-11-26T22:25:40.720Z,99899.53
2022-11-26T22:28:43.691Z,99896.28
2022-11-26T22:31:48.272Z,99895.41
2022-11-26T22:34:52.487Z,99891.53
2022-11-26T22:37:55.128Z,99893.09
2022-11-26T22:41:01.729Z,99895.22
2022-11-26T22:44:04.419Z,99893.50
2022-11-26T22:47:07.128Z,99894.84
2022-11-26T22:50:11.711Z,99897.75
2022-11-26T22:53:14.495Z,99886.59
2022-11-26T22:56:18.373Z,99892.50
2022-11-26T22:59:21.163Z,99894.34
2022-11-26T23:02:23.933Z,99892.41
2022-11-26T23:05:28.050Z,99893.22
2022-11-26T23:08:30.820Z,99899.00
2022-11-26T23:11:35.590Z,99895.09
2022-11-26T23:14:38.378Z,99881.03
2022-11-26T23:17:41.079Z,99891.72
2022-11-26T23:20:45.468Z,99886.13
2022-11-26T23:23:48.893Z,99881.47
2022-11-26T23:26:51.477Z,99875.75
2022-11-26T23:29:54.027Z,99875.63
2022-11-26T23:32:56.618Z,99863.34
2022-11-26T23:36:00.571Z,99861.72
2022-11-26T23:39:05.581Z,99856.34
2022-11-26T23:42:08.147Z,99850.56
2022-11-26T23:45:12.902Z,99837.09
2022-11-26T23:48:15.680Z,99828.91
2022-11-26T23:51:21.334Z,99831.41
2022-11-26T23:54:23.993Z,99820.50
2022-11-26T23:57:26.656Z,99814.44
